Time;durP1;ratioP1;P1;durP2;ratioP2;P2;SDS_P1;SDS_P2;PMS_P1;PMS_P2;Temp;Humidity;BMP_temperature;BMP_pressure;BME280_temperature;BME280_humidity;BME280_pressure;Samples;Min_cycle;Max_cycle;Signal;HPM_P1;HPM_P2
2021/07/04 00:02:11;;;;;;;7.28;6.63;;;16.50;99.90;;;;;;5019698;28;20118;-67
2021/07/04 00:04:38;;;;;;;6.88;6.32;;;16.40;99.90;;;;;;5022628;28;20068;-65
2021/07/04 00:07:05;;;;;;;12.80;7.45;;;16.40;99.90;;;;;;5018777;28;20068;-66
2021/07/04 00:09:32;;;;;;;6.63;5.95;;;16.40;99.90;;;;;;5022509;28;20135;-65
2021/07/04 00:11:59;;;;;;;7.80;7.00;;;16.40;99.90;;;;;;5016815;28;20438;-65
2021/07/04 00:14:26;;;;;;;8.55;6.15;;;16.30;99.90;;;;;;5023034;28;20757;-66
2021/07/04 00:16:53;;;;;;;10.85;7.05;;;16.30;99.90;;;;;;5019820;28;20045;-65
2021/07/04 00:19:20;;;;;;;6.88;6.18;;;16.30;99.90;;;;;;5021534;28;20048;-65
2021/07/04 00:21:47;;;;;;;9.07;6.90;;;16.30;99.90;;;;;;5031717;28;20037;-67
2021/07/04 00:24:15;;;;;;;8.25;7.22;;;16.30;99.90;;;;;;5022165;28;20613;-66
2021/07/04 00:26:41;;;;;;;10.15;7.35;;;16.30;99.90;;;;;;5020757;28;20094;-66
2021/07/04 00:29:09;;;;;;;7.60;6.90;;;16.30;99.90;;;;;;5022222;28;20045;-67
2021/07/04 00:31:35;;;;;;;9.40;8.25;;;16.30;99.90;;;;;;5020846;28;20108;-66
2021/07/04 00:34:02;;;;;;;8.30;7.38;;;16.30;99.90;;;;;;5020254;28;20504;-66
2021/07/04 00:36:30;;;;;;;7.88;6.97;;;16.30;99.90;;;;;;5020580;28;20050;-66
2021/07/04 00:38:56;;;;;;;8.32;7.53;;;16.30;99.90;;;;;;5020771;28;20049;-67
2021/07/04 00:41:25;;;;;;;9.48;7.80;;;16.30;99.90;;;;;;5037062;28;20655;-66
2021/07/04 00:43:52;;;;;;;15.48;7.65;;;16.30;99.90;;;;;;5023048;28;20071;-68
2021/07/04 00:46:19;;;;;;;9.35;6.68;;;16.30;99.90;;;;;;5022855;28;20425;-65
2021/07/04 00:48:46;;;;;;;8.18;7.38;;;16.30;99.90;;;;;;5022928;28;20054;-69
2021/07/04 00:51:14;;;;;;;8.65;7.75;;;16.30;99.90;;;;;;5023033;28;20160;-68
2021/07/04 00:53:41;;;;;;;8.43;7.65;;;16.30;99.90;;;;;;5024439;28;20053;-67
2021/07/04 00:56:09;;;;;;;7.65;6.95;;;16.30;99.90;;;;;;5021682;28;20049;-67
2021/07/04 00:58:37;;;;;;;9.57;6.65;;;16.30;99.90;;;;;;5024607;28;20124;-68
2021/07/04 01:01:04;;;;;;;9.82;8.63;;;16.30;99.90;;;;;;5022206;28;20045;-66
2021/07/04 01:03:31;;;;;;;10.05;7.90;;;16.30;99.90;;;;;;5040606;28;20049;-65
2021/07/04 01:05:58;;;;;;;9.45;7.90;;;16.40;99.90;;;;;;5022651;28;20049;-68
2021/07/04 01:08:27;;;;;;;8.93;8.02;;;16.40;99.90;;;;;;5023185;28;20132;-66
2021/07/04 01:10:54;;;;;;;10.13;9.13;;;16.40;99.90;;;;;;5043208;28;20107;-65
2021/07/04 01:13:27;;;;;;;7.75;6.85;;;16.40;99.90;;;;;;5022553;28;20046;-66
2021/07/04 01:16:08;;;;;;;12.55;8.25;;;16.40;99.90;;;;;;5024276;28;20053;-68
2021/07/04 01:18:35;;;;;;;11.48;8.40;;;16.50;99.90;;;;;;5023836;28;20247;-66
2021/07/04 01:21:06;;;;;;;11.65;8.45;;;16.40;99.90;;;;;;5042317;28;20571;-66
2021/07/04 01:23:39;;;;;;;10.55;9.13;;;16.50;99.90;;;;;;5019351;28;20041;-68
2021/07/04 01:26:07;;;;;;;9.57;8.73;;;16.50;99.90;;;;;;5024940;28;20054;-66
2021/07/04 01:28:35;;;;;;;8.40;7.57;;;16.50;99.90;;;;;;5036810;28;20042;-66
2021/07/04 01:31:05;;;;;;;9.93;8.93;;;16.50;99.90;;;;;;5040373;28;20051;-66
2021/07/04 01:33:36;;;;;;;8.98;8.10;;;16.50;99.90;;;;;;5035274;28;20106;-65
2021/07/04 01:36:12;;;;;;;10.02;8.68;;;16.50;99.90;;;;;;5016502;28;20049;-69
2021/07/04 01:38:43;;;;;;;10.73;8.90;;;16.50;99.90;;;;;;5053392;28;20049;-67
2021/07/04 01:41:12;;;;;;;9.68;8.68;;;16.50;99.90;;;;;;5054436;28;20041;-66
2021/07/04 01:43:39;;;;;;;9.63;8.65;;;16.50;99.90;;;;;;5022199;28;20053;-66
2021/07/04 01:46:06;;;;;;;11.45;10.35;;;16.50;99.90;;;;;;5037001;28;20049;-66
2021/07/04 01:48:33;;;;;;;10.70;9.73;;;16.50;99.90;;;;;;5035015;28;20076;-66
2021/07/04 01:51:04;;;;;;;9.80;8.88;;;16.50;99.90;;;;;;5043880;28;20053;-66
2021/07/04 01:53:35;;;;;;;11.15;9.90;;;16.50;99.90;;;;;;5021591;28;20046;-65
2021/07/04 01:56:12;;;;;;;11.55;9.32;;;16.50;99.90;;;;;;5034836;28;20049;-65
2021/07/04 01:58:47;;;;;;;12.88;11.45;;;16.50;99.90;;;;;;5039708;28;20161;-65
2021/07/04 02:01:22;;;;;;;9.80;8.85;;;16.50;99.90;;;;;;5034467;28;20081;-67
2021/07/04 02:03:49;;;;;;;12.27;11.05;;;16.50;99.90;;;;;;5023109;28;20050;-65
2021/07/04 02:06:18;;;;;;;10.02;8.98;;;16.50;99.90;;;;;;5021183;28;20060;-65
2021/07/04 02:08:47;;;;;;;12.07;10.47;;;16.50;99.90;;;;;;5024073;28;20056;-66
2021/07/04 02:11:14;;;;;;;10.48;9.48;;;16.50;99.90;;;;;;5020786;28;20053;-65
2021/07/04 02:13:46;;;;;;;10.40;9.38;;;16.50;99.90;;;;;;5031143;28;20062;-65
2021/07/04 02:16:21;;;;;;;9.45;8.63;;;16.50;99.90;;;;;;5022184;28;20061;-66
2021/07/04 02:19:00;;;;;;;15.00;9.32;;;16.50;99.90;;;;;;5020680;28;21505;-66
2021/07/04 02:21:33;;;;;;;10.10;9.15;;;16.50;99.90;;;;;;5024347;28;20045;-65
2021/07/04 02:24:21;;;;;;;8.68;7.70;;;16.50;99.90;;;;;;5009773;28;20041;-66
2021/07/04 02:26:58;;;;;;;9.20;8.25;;;16.40;99.90;;;;;;5020565;28;20049;-66
2021/07/04 02:29:41;;;;;;;9.23;8.38;;;16.40;99.90;;;;;;5013155;28;20130;-66
2021/07/04 02:32:12;;;;;;;13.20;9.05;;;16.40;99.90;;;;;;5035292;28;20049;-67
2021/07/04 02:34:39;;;;;;;9.07;8.18;;;16.50;99.90;;;;;;5021977;28;20045;-68
2021/07/04 02:37:07;;;;;;;10.43;7.88;;;16.50;99.90;;;;;;5039641;28;20052;-66
2021/07/04 02:39:43;;;;;;;9.63;8.70;;;16.50;99.90;;;;;;5049741;28;20077;-67
2021/07/04 02:42:12;;;;;;;9.25;8.45;;;16.50;99.90;;;;;;5038893;28;20043;-67
2021/07/04 02:44:38;;;;;;;11.43;10.23;;;16.50;99.90;;;;;;5022452;28;20046;-68
2021/07/04 02:47:08;;;;;;;12.27;9.73;;;16.50;99.90;;;;;;5020848;28;20081;-65
2021/07/04 02:49:35;;;;;;;10.73;9.65;;;16.50;99.90;;;;;;5022415;28;20041;-66
2021/07/04 02:52:06;;;;;;;10.32;9.38;;;16.60;99.90;;;;;;5045538;28;20500;-66
2021/07/04 02:54:34;;;;;;;12.13;10.85;;;16.60;99.90;;;;;;5051072;28;20099;-67
2021/07/04 02:57:26;;;;;;;12.73;9.30;;;16.60;99.90;;;;;;5021188;28;20408;-65
2021/07/04 02:59:56;;;;;;;9.73;8.68;;;16.60;99.90;;;;;;5022326;28;20049;-66
2021/07/04 03:02:25;;;;;;;10.23;9.30;;;16.60;99.90;;;;;;5021991;28;20049;-65
2021/07/04 03:04:54;;;;;;;;;;;16.60;99.90;;;;;;5022574;28;20042;-65
2021/07/04 03:07:23;;;;;;;10.10;8.18;;;16.60;99.90;;;;;;5019396;28;20422;-67
2021/07/04 03:09:52;;;;;;;9.65;8.65;;;16.70;99.90;;;;;;5020789;28;20050;-65
2021/07/04 03:12:23;;;;;;;9.25;8.25;;;16.70;99.90;;;;;;5018265;28;20446;-65
2021/07/04 03:14:52;;;;;;;9.35;8.13;;;16.60;99.90;;;;;;5035715;28;20487;-65
2021/07/04 03:17:19;;;;;;;8.82;7.63;;;16.70;99.90;;;;;;5021269;28;20426;-68
2021/07/04 03:19:46;;;;;;;8.68;7.78;;;16.70;99.90;;;;;;5020321;28;20148;-65
2021/07/04 03:22:16;;;;;;;9.55;8.57;;;16.70;99.90;;;;;;5022320;28;20069;-66
2021/07/04 03:24:44;;;;;;;8.00;7.10;;;16.70;99.90;;;;;;5036943;28;20052;-68
2021/07/04 03:27:11;;;;;;;10.15;7.85;;;16.70;99.90;;;;;;5022792;28;20049;-67
2021/07/04 03:29:42;;;;;;;10.75;9.73;;;16.80;99.90;;;;;;5019789;28;20049;-65
2021/07/04 03:32:10;;;;;;;9.35;8.32;;;16.80;99.90;;;;;;5017594;28;20064;-70
2021/07/04 03:34:37;;;;;;;9.20;8.30;;;16.90;99.90;;;;;;5037176;28;20518;-67
2021/07/04 03:37:05;;;;;;;13.07;8.82;;;17.00;99.90;;;;;;5020845;28;20056;-66
2021/07/04 03:39:34;;;;;;;9.75;8.75;;;17.00;99.90;;;;;;5018983;28;20407;-66
2021/07/04 03:42:02;;;;;;;10.63;8.68;;;17.00;99.90;;;;;;5019955;28;20132;-66
2021/07/04 03:44:31;;;;;;;8.77;7.85;;;17.00;99.90;;;;;;5036582;28;20041;-66
2021/07/04 03:46:59;;;;;;;11.25;8.55;;;17.10;99.90;;;;;;5021444;28;20056;-69
2021/07/04 03:49:26;;;;;;;8.88;7.97;;;17.10;99.90;;;;;;5021819;28;20152;-67
2021/07/04 03:52:06;;;;;;;8.68;7.95;;;17.10;99.90;;;;;;5019761;28;20053;-67
2021/07/04 03:54:34;;;;;;;10.10;7.70;;;17.20;99.90;;;;;;5037791;28;20041;-67
2021/07/04 03:57:21;;;;;;;8.07;7.28;;;17.20;99.90;;;;;;5039054;28;20139;-68
2021/07/04 03:59:56;;;;;;;9.60;8.60;;;17.30;99.90;;;;;;5051060;28;20444;-67
2021/07/04 04:02:23;;;;;;;13.38;9.32;;;17.30;99.90;;;;;;5033061;28;20120;-68
2021/07/04 04:04:57;;;;;;;10.00;8.65;;;17.40;99.90;;;;;;5017464;28;20372;-66
2021/07/04 04:07:26;;;;;;;8.88;8.00;;;17.50;99.90;;;;;;5017693;28;20130;-66
2021/07/04 04:09:54;;;;;;;8.63;7.82;;;17.50;99.90;;;;;;5018948;28;20487;-66
2021/07/04 04:12:23;;;;;;;8.90;7.95;;;17.60;99.90;;;;;;5020868;28;20127;-67
2021/07/04 04:14:50;;;;;;;11.05;8.18;;;17.70;99.90;;;;;;5019063;28;20085;-67
2021/07/04 04:17:17;;;;;;;10.13;7.30;;;17.70;99.90;;;;;;5021267;28;20045;-66
2021/07/04 04:19:47;;;;;;;10.57;9.57;;;17.80;99.90;;;;;;5016261;28;20419;-67
2021/07/04 04:22:15;;;;;;;8.93;8.02;;;17.80;99.90;;;;;;5035134;28;20049;-66
2021/07/04 04:24:48;;;;;;;9.25;8.18;;;17.90;99.90;;;;;;5020846;28;20049;-68
2021/07/04 04:27:16;;;;;;;9.20;8.40;;;18.00;99.90;;;;;;5037537;28;20049;-66
2021/07/04 04:29:45;;;;;;;9.07;8.30;;;18.00;99.90;;;;;;5034966;28;20442;-66
2021/07/04 04:32:15;;;;;;;7.38;6.68;;;18.10;99.90;;;;;;5036947;28;20442;-66
2021/07/04 04:34:43;;;;;;;8.63;7.88;;;18.10;99.90;;;;;;5020080;28;20148;-66
2021/07/04 04:37:11;;;;;;;7.20;6.50;;;18.20;99.90;;;;;;5020333;28;20034;-66
2021/07/04 04:39:38;;;;;;;7.55;6.32;;;18.20;99.90;;;;;;5019845;28;20107;-66
2021/07/04 04:42:05;;;;;;;7.15;6.60;;;18.20;99.90;;;;;;5020234;28;20111;-66
2021/07/04 04:44:35;;;;;;;7.68;6.95;;;18.30;99.90;;;;;;5020963;28;20057;-69
2021/07/04 04:47:03;;;;;;;8.23;7.07;;;18.40;99.90;;;;;;5022068;28;20037;-67
2021/07/04 04:49:32;;;;;;;7.18;6.50;;;18.40;99.90;;;;;;5021548;28;20052;-66
2021/07/04 04:51:59;;;;;;;6.03;5.53;;;18.40;99.90;;;;;;5018513;28;20160;-69
2021/07/04 04:54:26;;;;;;;7.43;6.47;;;18.50;99.90;;;;;;5021245;28;20058;-66
2021/07/04 04:56:53;;;;;;;5.35;4.85;;;18.50;99.90;;;;;;5021925;28;20069;-66
2021/07/04 04:59:19;;;;;;;7.13;6.45;;;18.60;99.90;;;;;;5020264;28;20091;-67
2021/07/04 05:01:46;;;;;;;7.38;6.60;;;18.60;99.90;;;;;;5020648;28;20048;-68
2021/07/04 05:04:13;;;;;;;5.90;5.40;;;18.70;99.90;;;;;;5020170;28;20563;-66
2021/07/04 05:06:42;;;;;;;7.75;7.03;;;18.70;99.90;;;;;;5021903;28;20104;-68
2021/07/04 05:09:09;;;;;;;8.15;5.38;;;18.70;99.90;;;;;;5021120;28;20557;-67
2021/07/04 05:11:35;;;;;;;7.00;4.57;;;18.80;99.90;;;;;;5018389;28;20037;-67
2021/07/04 05:14:02;;;;;;;5.43;4.93;;;18.90;99.90;;;;;;5020060;28;20119;-70
2021/07/04 05:16:34;;;;;;;5.75;5.25;;;18.90;99.90;;;;;;5035683;28;20107;-67
2021/07/04 05:19:05;;;;;;;6.57;4.43;;;19.00;99.90;;;;;;5020691;28;20042;-69
2021/07/04 05:21:33;;;;;;;4.43;4.03;;;19.10;99.90;;;;;;5035246;28;20336;-69
2021/07/04 05:24:01;;;;;;;4.78;3.90;;;19.10;99.90;;;;;;5018929;28;20412;-66
2021/07/04 05:26:29;;;;;;;5.15;4.75;;;19.20;99.90;;;;;;5022247;28;20049;-67
2021/07/04 05:28:56;;;;;;;5.75;5.20;;;19.30;99.90;;;;;;5023902;28;20103;-66
2021/07/04 05:31:24;;;;;;;3.90;3.60;;;19.30;99.90;;;;;;5024563;28;20438;-69
2021/07/04 05:33:51;;;;;;;6.03;3.72;;;19.40;99.90;;;;;;5023433;28;20180;-67
2021/07/04 05:36:18;;;;;;;4.72;3.50;;;19.40;99.90;;;;;;5022746;28;20463;-68
2021/07/04 05:38:45;;;;;;;3.45;3.10;;;19.40;99.90;;;;;;5023112;28;20389;-67
2021/07/04 05:41:13;;;;;;;4.35;3.75;;;19.40;99.90;;;;;;5025541;28;20046;-67
2021/07/04 05:43:43;;;;;;;4.93;3.92;;;19.50;99.90;;;;;;5021632;28;20133;-66
2021/07/04 05:46:11;;;;;;;3.55;3.25;;;19.50;99.90;;;;;;5021907;28;20717;-66
2021/07/04 05:48:41;;;;;;;4.40;3.47;;;19.60;99.90;;;;;;5024294;28;20047;-68
2021/07/04 05:51:08;;;;;;;;;;;19.70;99.90;;;;;;5025290;28;20053;-67
2021/07/04 05:53:35;;;;;;;3.38;3.08;;;19.70;99.90;;;;;;5023232;28;19921;-68
2021/07/04 05:56:02;;;;;;;2.50;2.35;;;19.70;99.90;;;;;;5023629;28;20046;-67
2021/07/04 05:58:29;;;;;;;3.97;3.55;;;19.70;99.90;;;;;;5022682;28;20072;-68
2021/07/04 06:00:56;;;;;;;3.63;2.70;;;19.80;99.90;;;;;;5023144;28;20119;-66
2021/07/04 06:03:23;;;;;;;4.93;2.55;;;19.80;99.90;;;;;;5024457;28;20041;-66
2021/07/04 06:05:50;;;;;;;2.95;2.67;;;19.90;99.90;;;;;;5022591;28;20113;-67
2021/07/04 06:08:17;;;;;;;2.95;2.72;;;20.00;99.90;;;;;;5022537;28;20034;-66
2021/07/04 06:10:51;;;;;;;4.20;2.60;;;20.10;99.90;;;;;;2167020;28;10024737;-67
2021/07/04 06:13:19;;;;;;;2.47;2.27;;;20.20;99.90;;;;;;3987012;28;10002048;-66
2021/07/04 06:15:46;;;;;;;2.08;1.88;;;20.30;99.90;;;;;;5021656;28;20295;-67
2021/07/04 06:18:13;;;;;;;2.17;1.98;;;20.50;99.90;;;;;;5024133;28;20107;-67
2021/07/04 06:20:40;;;;;;;2.35;2.15;;;20.60;99.90;;;;;;5022013;28;20597;-69
2021/07/04 06:23:07;;;;;;;3.58;2.33;;;20.60;99.90;;;;;;5023691;28;20511;-68
2021/07/04 06:25:34;;;;;;;2.88;2.40;;;20.60;99.90;;;;;;5022862;28;20046;-67
2021/07/04 06:28:02;;;;;;;3.33;3.03;;;20.60;99.90;;;;;;5022940;28;20049;-68
2021/07/04 06:30:29;;;;;;;2.70;2.40;;;20.50;99.90;;;;;;5023507;28;20717;-67
2021/07/04 06:32:56;;;;;;;2.55;2.35;;;20.40;99.90;;;;;;5024141;28;20038;-70
2021/07/04 06:35:23;;;;;;;2.97;2.63;;;20.40;99.90;;;;;;5022396;28;20057;-67
2021/07/04 06:37:50;;;;;;;2.55;2.33;;;20.40;99.90;;;;;;5021149;28;20049;-66
2021/07/04 06:40:17;;;;;;;2.80;2.60;;;20.30;99.90;;;;;;5015011;28;20048;-66
2021/07/04 06:42:44;;;;;;;3.60;3.30;;;20.30;99.90;;;;;;5031326;28;20045;-66
2021/07/04 06:45:12;;;;;;;4.38;3.55;;;20.30;99.90;;;;;;5033927;28;20066;-69
2021/07/04 06:47:42;;;;;;;3.67;3.38;;;20.40;99.90;;;;;;5024476;28;20457;-67
2021/07/04 06:50:10;;;;;;;3.03;2.80;;;20.30;99.90;;;;;;5017313;28;20046;-66
2021/07/04 06:52:38;;;;;;;4.35;3.30;;;20.40;99.90;;;;;;5034222;28;20402;-66
2021/07/04 06:55:07;;;;;;;4.53;3.38;;;20.50;99.90;;;;;;5033962;28;20504;-67
2021/07/04 06:57:34;;;;;;;3.22;2.95;;;20.50;99.90;;;;;;5034321;28;20064;-71
2021/07/04 07:00:11;;;;;;;4.95;3.20;;;20.60;99.90;;;;;;5026113;28;20073;-66
2021/07/04 07:02:39;;;;;;;4.68;3.47;;;20.60;99.90;;;;;;5024105;28;20046;-66
2021/07/04 07:05:08;;;;;;;3.47;2.95;;;20.70;99.90;;;;;;5021441;28;20087;-68
2021/07/04 07:07:35;;;;;;;3.25;2.95;;;20.80;99.90;;;;;;5023387;28;20411;-68
2021/07/04 07:10:07;;;;;;;4.00;3.63;;;20.90;99.90;;;;;;5019423;28;20079;-67
2021/07/04 07:12:35;;;;;;;3.90;3.58;;;21.00;99.90;;;;;;5023110;28;20053;-67
2021/07/04 07:15:03;;;;;;;5.97;3.70;;;20.90;99.90;;;;;;5022069;28;20061;-68
2021/07/04 07:17:30;;;;;;;15.60;6.20;;;21.00;99.90;;;;;;5023498;28;20858;-67
2021/07/04 07:20:04;;;;;;;5.47;3.78;;;20.90;99.90;;;;;;5035055;28;20068;-67
2021/07/04 07:22:31;;;;;;;4.10;3.80;;;21.00;99.90;;;;;;5022461;28;20037;-67
2021/07/04 07:24:58;;;;;;;3.70;3.28;;;21.10;99.90;;;;;;5020845;28;20479;-66
2021/07/04 07:27:28;;;;;;;3.25;2.92;;;21.10;99.90;;;;;;5022220;28;20041;-67
2021/07/04 07:30:00;;;;;;;3.53;3.20;;;21.10;99.90;;;;;;5033877;28;20053;-66
2021/07/04 07:32:27;;;;;;;4.32;3.25;;;21.10;99.90;;;;;;5022228;28;20052;-67
2021/07/04 07:34:54;;;;;;;4.18;3.88;;;21.00;99.90;;;;;;5053451;28;20348;-66
2021/07/04 07:37:23;;;;;;;4.78;4.28;;;21.00;99.90;;;;;;5020267;28;20061;-67
2021/07/04 07:39:51;;;;;;;3.58;3.22;;;21.10;99.90;;;;;;5018163;28;20065;-66
2021/07/04 07:42:18;;;;;;;3.28;2.97;;;21.10;99.90;;;;;;5022397;28;20045;-67
2021/07/04 07:44:45;;;;;;;4.18;3.83;;;21.20;99.90;;;;;;5020295;28;20049;-66
2021/07/04 07:47:13;;;;;;;4.95;4.35;;;21.10;99.90;;;;;;5022338;28;20072;-67
2021/07/04 07:49:40;;;;;;;4.38;3.88;;;21.10;99.90;;;;;;5020752;28;20048;-69
2021/07/04 07:52:07;;;;;;;4.75;4.35;;;21.10;99.90;;;;;;5019122;28;20049;-66
2021/07/04 07:54:39;;;;;;;4.50;3.90;;;21.10;99.90;;;;;;5036376;28;20603;-68
2021/07/04 07:57:07;;;;;;;4.97;3.85;;;21.00;99.90;;;;;;5038060;28;20146;-70
2021/07/04 07:59:38;;;;;;;4.13;3.45;;;21.00;99.90;;;;;;5033227;28;20042;-66
2021/07/04 08:02:05;;;;;;;4.22;3.40;;;21.10;99.90;;;;;;5019963;28;20462;-67
2021/07/04 08:04:32;;;;;;;5.30;3.50;;;21.30;99.90;;;;;;5020830;28;20602;-67
2021/07/04 08:06:59;;;;;;;3.53;2.97;;;21.40;99.90;;;;;;5022357;28;20099;-67
2021/07/04 08:09:26;;;;;;;3.40;3.10;;;21.50;99.90;;;;;;5020650;28;20053;-67
2021/07/04 08:11:53;;;;;;;4.63;3.63;;;21.40;99.90;;;;;;5020983;28;20049;-67
2021/07/04 08:14:20;;;;;;;3.97;3.67;;;21.40;99.90;;;;;;5036624;28;20046;-69
2021/07/04 08:16:52;;;;;;;4.20;3.30;;;21.40;99.90;;;;;;5037846;28;20037;-67
2021/07/04 08:19:20;;;;;;;3.17;2.85;;;21.40;99.90;;;;;;5019175;28;20053;-70
2021/07/04 08:21:46;;;;;;;3.50;2.70;;;21.50;99.90;;;;;;5020245;28;20082;-66
2021/07/04 08:24:14;;;;;;;3.67;3.38;;;21.50;99.90;;;;;;5020912;28;20041;-69
2021/07/04 08:26:41;;;;;;;9.85;3.10;;;21.60;99.90;;;;;;5022309;28;20542;-66
2021/07/04 08:29:08;;;;;;;3.30;2.97;;;21.60;99.90;;;;;;5019809;28;20739;-66
2021/07/04 08:31:34;;;;;;;4.82;2.80;;;21.60;99.90;;;;;;5021987;28;20045;-67
2021/07/04 08:34:02;;;;;;;3.47;3.17;;;21.60;99.90;;;;;;5018857;28;20096;-66
2021/07/04 08:36:32;;;;;;;8.15;3.30;;;21.60;99.90;;;;;;5021051;28;20479;-66
2021/07/04 08:39:00;;;;;;;6.25;3.60;;;21.50;99.90;;;;;;5019251;28;20099;-68
2021/07/04 08:41:27;;;;;;;3.90;3.60;;;21.50;99.90;;;;;;5021412;28;20061;-67
2021/07/04 08:43:54;;;;;;;4.32;3.95;;;21.40;99.90;;;;;;5018675;28;20258;-66
2021/07/04 08:46:21;;;;;;;2.63;2.33;;;21.50;99.90;;;;;;5023005;28;20042;-67
2021/07/04 08:48:48;;;;;;;2.75;2.47;;;21.40;99.90;;;;;;5021033;28;20115;-67
2021/07/04 08:51:16;;;;;;;2.78;2.58;;;21.30;99.90;;;;;;5022324;28;20046;-67
2021/07/04 08:53:43;;;;;;;3.25;2.95;;;21.20;99.90;;;;;;5019794;28;20503;-66
2021/07/04 08:56:10;;;;;;;5.75;2.60;;;21.20;99.90;;;;;;5014749;28;20068;-66
2021/07/04 08:58:37;;;;;;;3.80;3.38;;;21.30;99.90;;;;;;5020756;28;20103;-68
2021/07/04 09:01:25;;;;;;;4.35;3.70;;;21.30;99.90;;;;;;5019244;28;20049;-68
2021/07/04 09:03:56;;;;;;;4.35;3.35;;;21.30;99.90;;;;;;5022138;28;20045;-67
2021/07/04 09:06:42;;;;;;;3.53;2.95;;;21.40;99.90;;;;;;5038298;28;20050;-68
2021/07/04 09:09:27;;;;;;;3.88;2.35;;;21.50;99.90;;;;;;5025168;28;20049;-66
2021/07/04 09:12:05;;;;;;;3.33;3.00;;;21.60;99.90;;;;;;5022219;28;20116;-66
2021/07/04 09:14:41;;;;;;;3.42;3.13;;;21.60;99.90;;;;;;5025648;28;20356;-70
2021/07/04 09:17:33;;;;;;;5.00;3.20;;;21.60;99.90;;;;;;5024051;28;20046;-67
2021/07/04 09:20:02;;;;;;;2.30;2.13;;;21.70;99.90;;;;;;5023646;28;20060;-69
2021/07/04 09:22:34;;;;;;;5.07;3.00;;;21.70;99.90;;;;;;5022723;28;20061;-69
2021/07/04 09:25:19;;;;;;;3.13;2.90;;;21.60;99.90;;;;;;5024615;28;20427;-68
2021/07/04 09:28:06;;;;;;;3.10;2.90;;;21.60;99.90;;;;;;5022915;28;20042;-67
2021/07/04 09:30:57;;;;;;;4.70;2.95;;;21.50;99.90;;;;;;5024445;28;20384;-68
2021/07/04 09:33:26;;;;;;;3.22;2.95;;;21.60;99.90;;;;;;5024693;28;20445;-66
2021/07/04 09:36:00;;;;;;;2.88;2.67;;;21.70;99.90;;;;;;5021982;28;20129;-67
2021/07/04 09:38:31;;;;;;;4.88;3.58;;;21.90;99.90;;;;;;5023938;28;20111;-66
2021/07/04 09:40:59;;;;;;;3.20;2.55;;;22.10;99.90;;;;;;5021227;28;20069;-67
2021/07/04 09:43:31;;;;;;;5.05;3.35;;;22.30;99.90;;;;;;5024534;28;20049;-67
2021/07/04 09:46:18;;;;;;;4.97;3.67;;;22.40;99.90;;;;;;5022393;28;20156;-68
2021/07/04 09:48:50;;;;;;;2.97;2.75;;;22.50;99.90;;;;;;5023140;28;20041;-66
2021/07/04 09:51:20;;;;;;;3.45;3.13;;;22.70;99.90;;;;;;5021631;28;20041;-66
2021/07/04 09:53:52;;;;;;;3.10;2.80;;;22.80;99.90;;;;;;5023197;28;20077;-67
2021/07/04 09:56:30;;;;;;;4.55;3.13;;;23.00;99.90;;;;;;5024177;28;20119;-66
2021/07/04 09:59:00;;;;;;;3.80;3.50;;;23.10;99.90;;;;;;5024645;28;20041;-67
2021/07/04 10:01:36;;;;;;;3.17;2.63;;;23.20;99.90;;;;;;5020715;28;20041;-67
2021/07/04 10:04:07;;;;;;;3.45;3.15;;;23.20;99.90;;;;;;5022754;28;20114;-68
2021/07/04 10:06:51;;;;;;;2.90;2.70;;;23.30;99.90;;;;;;5020199;28;20048;-66
2021/07/04 10:09:20;;;;;;;2.92;2.63;;;23.40;99.90;;;;;;5025399;28;20578;-66
2021/07/04 10:11:48;;;;;;;3.75;3.30;;;23.50;99.90;;;;;;5019916;28;20602;-66
2021/07/04 10:14:15;;;;;;;3.03;2.47;;;23.50;99.90;;;;;;5025231;28;20049;-66
2021/07/04 10:16:44;;;;;;;3.20;2.92;;;23.40;99.90;;;;;;5023137;28;20057;-67
2021/07/04 10:19:19;;;;;;;4.25;2.42;;;23.40;99.90;;;;;;5025482;28;20044;-66
2021/07/04 10:21:59;;;;;;;4.10;2.72;;;23.30;99.90;;;;;;5018887;28;20486;-67
2021/07/04 10:24:26;;;;;;;2.97;2.30;;;23.30;99.90;;;;;;5024315;28;20088;-68
2021/07/04 10:26:56;;;;;;;4.65;2.60;;;23.20;99.90;;;;;;5020592;28;20057;-66
2021/07/04 10:29:28;;;;;;;4.00;2.90;;;23.30;99.90;;;;;;5024298;28;20072;-66
2021/07/04 10:32:05;;;;;;;2.80;2.60;;;23.30;99.90;;;;;;5021077;28;20041;-68
2021/07/04 10:34:41;;;;;;;2.78;2.58;;;23.30;99.90;;;;;;5023206;28;20038;-68
2021/07/04 10:37:09;;;;;;;4.88;2.85;;;23.40;99.90;;;;;;5022895;28;20144;-66
2021/07/04 10:39:36;;;;;;;4.57;2.75;;;23.30;99.90;;;;;;5022531;28;20112;-69
2021/07/04 10:42:08;;;;;;;2.50;2.30;;;23.50;99.90;;;;;;5022578;28;24903;-68
2021/07/04 10:44:48;;;;;;;3.85;3.45;;;23.80;99.90;;;;;;5022594;28;20099;-66
2021/07/04 10:47:27;;;;;;;;;;;23.80;99.90;;;;;;5045123;28;20037;-67
2021/07/04 10:49:56;;;;;;;4.18;2.67;;;24.00;99.90;;;;;;5020916;28;20018;-67
2021/07/04 10:52:38;;;;;;;2.65;2.45;;;23.90;99.90;;;;;;5023077;28;20111;-69
2021/07/04 10:55:27;;;;;;;3.03;2.70;;;23.90;99.90;;;;;;5023874;28;20095;-67
2021/07/04 10:58:04;;;;;;;3.72;2.55;;;23.80;99.90;;;;;;5020808;28;20115;-69
2021/07/04 11:00:34;;;;;;;3.22;2.55;;;23.90;99.90;;;;;;5021581;28;20050;-68
2021/07/04 11:03:02;;;;;;;;;;;24.00;99.90;;;;;;5022545;28;20041;-67
2021/07/04 11:05:35;;;;;;;3.17;2.65;;;24.10;99.90;;;;;;5023794;28;21373;-66
2021/07/04 11:08:04;;;;;;;2.85;2.65;;;24.20;99.90;;;;;;5020660;28;20053;-67
2021/07/04 11:10:40;;;;;;;2.92;2.40;;;24.40;99.90;;;;;;5024224;28;20115;-67
2021/07/04 11:13:07;;;;;;;4.03;3.00;;;24.60;99.90;;;;;;5023319;28;20107;-68
2021/07/04 11:15:38;;;;;;;3.20;2.40;;;25.00;99.90;;;;;;5022549;28;20084;-69
2021/07/04 11:18:14;;;;;;;2.22;2.03;;;25.50;99.90;;;;;;5019965;28;20107;-69
2021/07/04 11:20:44;;;;;;;2.30;2.10;;;25.90;99.90;;;;;;5022269;28;20129;-68
2021/07/04 11:23:21;;;;;;;2.92;2.72;;;26.20;99.90;;;;;;5020902;28;20049;-69
2021/07/04 11:26:00;;;;;;;4.13;2.85;;;26.50;99.90;;;;;;5021712;28;20061;-67
2021/07/04 11:28:33;;;;;;;2.88;2.53;;;26.60;99.90;;;;;;5018584;28;20037;-70
2021/07/04 11:31:07;;;;;;;2.85;2.65;;;26.80;99.90;;;;;;5023128;28;20152;-67
2021/07/04 11:33:36;;;;;;;4.22;3.08;;;27.00;99.20;;;;;;5021646;28;20367;-68
2021/07/04 11:36:15;;;;;;;4.77;3.77;;;27.10;99.90;;;;;;5022619;28;20222;-67
2021/07/04 11:38:47;;;;;;;3.03;2.83;;;27.30;99.40;;;;;;5019462;28;20049;-65
2021/07/04 11:41:25;;;;;;;2.78;2.38;;;27.30;99.90;;;;;;5023717;28;20049;-65
2021/07/04 11:44:10;;;;;;;6.45;2.80;;;27.30;99.30;;;;;;5019919;28;20048;-64
2021/07/04 11:46:42;;;;;;;4.95;2.63;;;27.20;99.90;;;;;;5021941;28;20092;-65
2021/07/04 11:49:20;;;;;;;3.95;2.97;;;27.10;98.90;;;;;;5021435;28;20513;-65
2021/07/04 11:51:49;;;;;;;2.75;2.47;;;27.00;99.80;;;;;;5020987;28;20045;-67
2021/07/04 11:54:18;;;;;;;2.97;2.78;;;27.00;99.90;;;;;;5020879;28;20095;-65
2021/07/04 11:56:50;;;;;;;3.53;3.22;;;27.10;99.90;;;;;;5022557;28;20049;-65
2021/07/04 11:59:20;;;;;;;3.42;2.85;;;27.30;99.90;;;;;;5022062;28;20533;-65
2021/07/04 12:02:02;;;;;;;3.65;2.78;;;27.40;99.90;;;;;;5021597;28;20052;-65
2021/07/04 12:04:44;;;;;;;5.25;4.03;;;27.40;99.50;;;;;;5021385;28;20712;-65
2021/07/04 12:07:13;;;;;;;2.92;2.72;;;27.60;99.90;;;;;;5021774;28;20045;-65
2021/07/04 12:09:46;;;;;;;4.10;3.70;;;27.60;98.10;;;;;;5023272;28;20053;-65
2021/07/04 12:12:27;;;;;;;4.03;2.97;;;27.70;98.00;;;;;;5018439;28;20826;-65
2021/07/04 12:14:55;;;;;;;3.30;2.80;;;27.60;98.30;;;;;;5023646;28;20107;-66
2021/07/04 12:17:31;;;;;;;5.50;3.08;;;27.50;98.20;;;;;;5020155;28;20467;-65
2021/07/04 12:20:01;;;;;;;3.10;2.80;;;27.60;98.60;;;;;;5021532;28;20049;-65
2021/07/04 12:22:47;;;;;;;2.92;2.55;;;27.50;97.20;;;;;;5019520;28;20046;-65
2021/07/04 12:25:34;;;;;;;4.72;3.55;;;27.40;96.50;;;;;;5022399;28;20041;-67
2021/07/04 12:28:09;;;;;;;2.55;2.35;;;27.70;96.50;;;;;;5018425;28;20046;-65
2021/07/04 12:30:44;;;;;;;10.98;4.03;;;27.80;98.00;;;;;;5021961;28;20050;-66
2021/07/04 12:33:16;;;;;;;2.92;2.65;;;27.90;98.80;;;;;;5022280;28;20537;-65
2021/07/04 12:35:48;;;;;;;4.10;2.80;;;28.00;97.30;;;;;;5018819;28;20103;-65
2021/07/04 12:38:17;;;;;;;2.70;2.50;;;27.80;96.60;;;;;;5021795;28;20099;-65
2021/07/04 12:41:08;;;;;;;3.17;2.88;;;27.60;96.30;;;;;;5023337;28;20049;-68
2021/07/04 12:43:45;;;;;;;5.30;3.50;;;27.40;97.20;;;;;;5022668;28;20041;-68
2021/07/04 12:46:23;;;;;;;5.90;2.72;;;27.10;98.40;;;;;;5019565;28;20451;-67
2021/07/04 12:48:54;;;;;;;4.75;2.70;;;26.90;98.20;;;;;;5023074;28;20384;-64
2021/07/04 12:51:24;;;;;;;6.00;2.53;;;26.90;98.40;;;;;;5027031;28;20126;-65
2021/07/04 12:53:51;;;;;;;2.53;2.33;;;27.10;98.90;;;;;;5025515;28;20606;-65
2021/07/04 12:56:25;;;;;;;3.28;3.03;;;27.40;97.80;;;;;;5028229;28;20122;-65
2021/07/04 12:58:59;;;;;;;2.33;2.13;;;27.70;99.10;;;;;;5027193;28;20454;-65
2021/07/04 13:01:35;;;;;;;3.50;2.88;;;28.10;98.30;;;;;;5025849;28;21460;-65
2021/07/04 13:04:10;;;;;;;2.30;2.08;;;28.40;96.50;;;;;;5026976;28;20074;-65